Time;durP1;ratioP1;P1;durP2;ratioP2;P2;SDS_P1;SDS_P2;PMS_P1;PMS_P2;Temp;Humidity;BMP_temperature;BMP_pressure;BME280_temperature;BME280_humidity;BME280_pressure;Samples;Min_cycle;Max_cycle;Signal;HPM_P1;HPM_P2
2020/12/27 00:03:10;;;;;;;12.52;4.65;;;;;;;0.30;68.10;98254.31;10461572;28;20417;-49
2020/12/27 00:08:13;;;;;;;12.35;4.65;;;;;;;0.15;68.02;98269.06;10460963;28;20374;-51
2020/12/27 00:13:14;;;;;;;9.02;3.70;;;;;;;-0.02;68.06;98283.09;10461086;28;20470;-52
2020/12/27 00:18:18;;;;;;;15.00;5.80;;;;;;;-0.07;68.08;98281.72;10460798;28;20048;-52
2020/12/27 00:23:21;;;;;;;13.13;4.93;;;;;;;-0.06;67.62;98289.41;10460837;28;20557;-51
2020/12/27 00:28:22;;;;;;;11.98;5.43;;;;;;;-0.14;67.95;98291.63;10460287;28;20068;-49
2020/12/27 00:33:24;;;;;;;13.20;5.47;;;;;;;-0.15;68.07;98304.66;10460563;28;20053;-50
2020/12/27 00:38:27;;;;;;;13.00;5.65;;;;;;;-0.18;68.04;98304.84;10460439;28;20074;-52
2020/12/27 00:43:28;;;;;;;15.67;6.00;;;;;;;-0.22;68.11;98305.94;10459351;28;20056;-51
2020/12/27 00:48:30;;;;;;;10.65;5.13;;;;;;;-0.23;67.74;98302.53;10461667;28;20068;-49
2020/12/27 00:53:32;;;;;;;14.73;5.15;;;;;;;-0.36;68.22;98306.84;10459149;28;20389;-58
2020/12/27 00:58:34;;;;;;;11.38;5.65;;;;;;;-0.32;68.39;98319.44;10459390;28;20057;-52
2020/12/27 01:03:36;;;;;;;13.63;5.75;;;;;;;-0.20;68.59;98335.09;10459326;28;20488;-52
2020/12/27 01:08:57;;;;;;;11.93;5.20;;;;;;;-0.15;68.50;98341.63;10461148;28;20120;-52
2020/12/27 01:14:00;;;;;;;12.00;5.35;;;;;;;-0.16;68.52;98350.28;10459897;28;20064;-50
2020/12/27 01:19:02;;;;;;;10.68;4.28;;;;;;;-0.26;68.69;98349.22;10458539;28;20044;-49
2020/12/27 01:24:12;;;;;;;11.85;5.70;;;;;;;-0.30;69.09;98353.75;10459145;28;20106;-52
2020/12/27 01:29:17;;;;;;;12.35;4.97;;;;;;;-0.21;68.83;98370.44;10458603;28;20458;-52
2020/12/27 01:34:28;;;;;;;11.73;4.82;;;;;;;-0.11;68.76;98365.53;10458532;28;20049;-50
2020/12/27 01:39:32;;;;;;;13.40;6.17;;;;;;;-0.26;68.59;98373.28;10457052;28;20052;-51
2020/12/27 01:44:33;;;;;;;13.40;6.17;;;;;;;-0.31;68.84;98385.69;10458310;28;20055;-51
2020/12/27 01:49:37;;;;;;;16.33;6.80;;;;;;;-0.31;68.84;98387.41;10456824;28;20044;-49
2020/12/27 01:54:40;;;;;;;12.18;5.80;;;;;;;-0.38;68.86;98392.13;10459591;28;20055;-51
2020/12/27 01:59:48;;;;;;;16.25;5.97;;;;;;;-0.43;68.62;98399.34;10466296;28;20053;-52
2020/12/27 02:05:09;;;;;;;14.02;6.22;;;;;;;-0.39;68.84;98399.97;10465792;28;20523;-51
2020/12/27 02:10:16;;;;;;;11.93;5.00;;;;;;;-0.53;69.13;98403.38;10464883;28;20072;-51
2020/12/27 02:15:17;;;;;;;14.23;5.20;;;;;;;-0.55;68.60;98406.06;10465446;28;20113;-48
2020/12/27 02:20:38;;;;;;;16.75;6.20;;;;;;;-0.56;68.25;98403.56;10466649;28;20055;-49
2020/12/27 02:25:53;;;;;;;9.82;5.38;;;;;;;-0.52;68.91;98415.38;10466171;28;20041;-49
2020/12/27 02:31:04;;;;;;;13.20;4.88;;;;;;;-0.39;68.33;98416.28;10464508;28;20052;-49
2020/12/27 02:36:14;;;;;;;11.10;5.00;;;;;;;-0.34;68.99;98428.91;10464983;28;20492;-51
2020/12/27 02:41:21;;;;;;;11.10;4.68;;;;;;;-0.37;68.78;98429.94;10463075;28;20063;-49
2020/12/27 02:46:36;;;;;;;13.90;4.43;;;;;;;-0.31;69.44;98451.97;10464636;28;20041;-49
2020/12/27 02:52:04;;;;;;;14.25;5.22;;;;;;;-0.16;69.22;98457.94;10464095;28;20067;-49
2020/12/27 02:57:07;;;;;;;12.47;4.97;;;;;;;-0.12;68.47;98470.59;10465292;28;20110;-53
2020/12/27 03:02:09;;;;;;;12.50;4.33;;;;;;;-0.13;68.74;98481.84;10464398;28;20056;-49
2020/12/27 03:07:31;;;;;;;11.40;5.28;;;;;;;-0.09;68.92;98496.25;10462899;28;20056;-51
2020/12/27 03:12:42;;;;;;;11.85;5.45;;;;;;;0.03;68.78;98499.81;10463076;28;20149;-49
2020/12/27 03:17:44;;;;;;;9.93;4.28;;;;;;;0.10;68.59;98508.03;10463545;28;20041;-51
2020/12/27 03:23:16;;;;;;;12.38;5.93;;;;;;;0.01;68.07;98511.19;10461893;28;20075;-49
2020/12/27 03:28:22;;;;;;;16.13;5.75;;;;;;;-0.05;68.46;98504.63;10463263;28;20045;-51
2020/12/27 03:33:31;;;;;;;11.05;3.92;;;;;;;0.04;68.12;98516.16;10464373;28;20428;-52
2020/12/27 03:38:36;;;;;;;11.38;5.13;;;;;;;-0.04;68.03;98530.38;10463628;28;20055;-49
2020/12/27 03:44:07;;;;;;;9.95;4.93;;;;;;;-0.08;68.44;98533.25;10464039;28;20516;-51
2020/12/27 03:49:28;;;;;;;10.80;4.75;;;;;;;-0.13;68.12;98535.25;10461408;28;20122;-51
2020/12/27 03:54:45;;;;;;;15.88;6.40;;;;;;;-0.25;68.64;98539.41;10461797;28;20044;-51
2020/12/27 04:00:10;;;;;;;13.48;5.82;;;;;;;-0.28;68.59;98555.94;10461220;28;20065;-51
2020/12/27 04:05:17;;;;;;;10.70;5.13;;;;;;;-0.24;68.02;98564.31;10461861;28;20397;-49
2020/12/27 04:10:20;;;;;;;10.85;4.90;;;;;;;-0.32;67.21;98584.59;10460419;28;20052;-51
2020/12/27 04:15:22;;;;;;;10.80;5.25;;;;;;;-0.49;66.81;98595.91;10459877;28;20470;-52
2020/12/27 04:20:35;;;;;;;12.55;5.80;;;;;;;-0.77;66.93;98609.53;10458777;28;20041;-52
2020/12/27 04:25:37;;;;;;;12.05;4.75;;;;;;;-0.86;67.69;98625.53;10460660;28;20056;-53
2020/12/27 04:30:39;;;;;;;10.93;5.10;;;;;;;-0.98;67.51;98640.78;10460785;28;20071;-51
2020/12/27 04:36:00;;;;;;;12.52;5.75;;;;;;;-1.06;67.86;98644.72;10460885;28;20083;-54
2020/12/27 04:41:02;;;;;;;12.00;5.75;;;;;;;-1.10;67.60;98664.69;10459647;28;20076;-49
2020/12/27 04:46:05;;;;;;;14.48;5.97;;;;;;;-1.20;67.11;98677.25;10459174;28;20466;-51
2020/12/27 04:51:14;;;;;;;14.70;5.68;;;;;;;-1.20;67.16;98687.56;10460314;28;20052;-51
2020/12/27 04:56:23;;;;;;;12.98;5.22;;;;;;;-1.22;66.77;98702.28;10458992;28;20513;-51
2020/12/27 05:01:39;;;;;;;12.57;5.22;;;;;;;-1.32;66.22;98708.00;10461491;28;20064;-49
2020/12/27 05:06:53;;;;;;;10.85;4.80;;;;;;;-1.56;66.52;98721.25;10459343;28;20045;-51
2020/12/27 05:12:03;;;;;;;10.80;4.35;;;;;;;-1.63;66.06;98732.78;10459122;28;20052;-51
2020/12/27 05:17:06;;;;;;;13.10;5.90;;;;;;;-1.71;65.76;98743.47;10457619;28;20045;-49
2020/12/27 05:22:28;;;;;;;10.85;5.15;;;;;;;-1.82;65.56;98756.03;10457797;28;20135;-50
2020/12/27 05:28:01;;;;;;;13.73;5.38;;;;;;;-1.99;65.64;98772.34;10461184;28;20103;-48
2020/12/27 05:33:23;;;;;;;18.52;6.10;;;;;;;-2.11;65.49;98780.66;10458470;28;20102;-50
2020/12/27 05:38:46;;;;;;;10.85;4.57;;;;;;;-2.14;65.19;98791.94;10458327;28;20048;-51
2020/12/27 05:44:08;;;;;;;11.57;5.50;;;;;;;-2.34;65.36;98800.63;10458267;28;20110;-51
2020/12/27 05:49:11;;;;;;;13.77;5.65;;;;;;;-2.44;65.52;98814.81;10457937;28;20049;-52
2020/12/27 05:54:21;;;;;;;18.67;5.68;;;;;;;-2.47;65.39;98825.25;10456652;28;20501;-48
2020/12/27 05:59:33;;;;;;;11.82;5.22;;;;;;;-2.52;65.38;98837.50;10458893;28;20057;-49
2020/12/27 06:05:07;;;;;;;12.93;5.55;;;;;;;-2.49;65.38;98857.09;10458138;28;20150;-48
2020/12/27 06:10:12;;;;;;;17.08;5.97;;;;;;;-2.40;65.57;98861.81;10457524;28;20063;-51
2020/12/27 06:15:25;;;;;;;14.32;5.95;;;;;;;-2.23;65.39;98868.78;10458182;28;20106;-49
2020/12/27 06:20:46;;;;;;;17.63;7.22;;;;;;;-1.77;67.70;98882.09;10458837;28;20063;-49
2020/12/27 06:25:57;;;;;;;14.82;5.97;;;;;;;-1.05;70.16;98887.06;10456395;28;20049;-48
2020/12/27 06:31:06;;;;;;;20.08;8.70;;;;;;;-0.13;71.09;98897.75;10457384;28;20071;-49
2020/12/27 06:36:31;;;;;;;27.38;12.32;;;;;;;0.18;71.11;98898.66;10457570;28;20048;-51
2020/12/27 06:41:33;;;;;;;13.20;5.97;;;;;;;0.01;68.80;98914.25;10459075;28;20060;-51
2020/12/27 06:46:54;;;;;;;10.75;4.47;;;;;;;-0.16;67.43;98928.91;10467738;28;20056;-49
2020/12/27 06:52:20;;;;;;;14.82;6.38;;;;;;;-0.49;66.96;98942.72;10463818;28;20110;-51
2020/12/27 06:57:43;;;;;;;11.70;5.18;;;;;;;-0.74;66.55;98947.44;10464117;28;20460;-51
2020/12/27 07:03:07;;;;;;;13.27;5.38;;;;;;;-0.85;66.76;98954.91;10463899;28;20132;-48
2020/12/27 07:08:11;;;;;;;11.85;5.63;;;;;;;-0.64;67.38;98968.47;10465347;28;20056;-52
2020/12/27 07:13:13;;;;;;;;;;;;;;;-0.44;67.17;98985.50;10465460;28;20109;-51
2020/12/27 07:18:20;;;;;;;14.57;5.70;;;;;;;-0.36;66.89;99004.88;10463302;28;19970;-48
2020/12/27 07:23:25;;;;;;;12.10;4.95;;;;;;;-0.26;66.88;99015.56;10464080;28;20052;-48
2020/12/27 07:28:27;;;;;;;14.27;6.65;;;;;;;-0.34;67.04;99012.53;10462892;28;20053;-52
2020/12/27 07:33:30;;;;;;;13.85;5.95;;;;;;;-0.13;67.44;99031.25;10463294;28;20049;-48
2020/12/27 07:38:59;;;;;;;14.40;6.10;;;;;;;0.13;68.81;99042.81;10462227;28;20075;-51
2020/12/27 07:44:01;;;;;;;11.25;5.20;;;;;;;0.65;69.97;99050.34;10462971;28;20049;-49
2020/12/27 07:49:03;;;;;;;12.25;5.72;;;;;;;0.83;69.43;99048.47;10461988;28;20053;-49
2020/12/27 07:54:07;;;;;;;14.50;5.85;;;;;;;0.64;68.24;99049.50;10462834;28;20045;-51
2020/12/27 07:59:09;;;;;;;12.02;5.15;;;;;;;0.39;67.33;99060.34;10461337;28;20080;-50
2020/12/27 08:04:11;;;;;;;12.37;6.00;;;;;;;0.08;66.61;99065.47;10462586;28;20462;-51
2020/12/27 08:09:14;;;;;;;17.67;5.47;;;;;;;-0.22;66.45;99067.88;10462114;28;20048;-49
2020/12/27 08:14:16;;;;;;;13.60;5.60;;;;;;;-0.34;66.52;99074.50;10461364;28;20515;-52
2020/12/27 08:19:18;;;;;;;13.45;5.47;;;;;;;-0.49;66.40;99082.13;10460924;28;20041;-48
2020/12/27 08:24:20;;;;;;;12.00;5.10;;;;;;;-0.39;66.99;99092.00;10460905;28;20499;-51
2020/12/27 08:29:24;;;;;;;12.45;5.28;;;;;;;-0.36;66.60;99086.69;10460841;28;20102;-51
2020/12/27 08:34:25;;;;;;;;;;;;;;;-0.20;68.07;99107.41;10461700;28;20056;-51
2020/12/27 08:39:35;;;;;;;11.52;5.13;;;;;;;0.09;67.74;99113.66;10460382;28;19925;-51
2020/12/27 08:44:45;;;;;;;17.05;5.43;;;;;;;-0.08;67.70;99109.38;10460761;28;20063;-51
2020/12/27 08:49:58;;;;;;;11.07;5.57;;;;;;;-0.08;67.18;99117.94;10460734;28;20055;-51
2020/12/27 08:55:02;;;;;;;11.70;5.90;;;;;;;-0.15;67.01;99137.25;10459539;28;20048;-51
2020/12/27 09:00:09;;;;;;;15.23;5.80;;;;;;;0.00;67.00;99166.66;10459303;28;20072;-48
2020/12/27 09:05:12;;;;;;;15.00;6.13;;;;;;;0.09;66.42;99171.34;10460741;28;20136;-48
2020/12/27 09:10:20;;;;;;;14.10;5.97;;;;;;;0.10;66.64;99167.03;10459020;28;20567;-51
2020/12/27 09:15:26;;;;;;;12.13;5.57;;;;;;;-0.24;65.71;99174.72;10459209;28;20063;-54
2020/12/27 09:20:30;;;;;;;12.52;5.95;;;;;;;-0.35;65.53;99174.41;10458540;28;20478;-51
2020/12/27 09:25:33;;;;;;;13.35;5.85;;;;;;;-0.17;66.11;99192.50;10458318;28;20469;-50
2020/12/27 09:30:34;;;;;;;12.07;5.13;;;;;;;0.24;66.51;99205.91;10461018;28;20060;-48
2020/12/27 09:35:36;;;;;;;13.68;6.70;;;;;;;1.45;67.84;99206.41;10461935;28;20179;-51
2020/12/27 09:40:39;;;;;;;11.48;5.18;;;;;;;3.10;69.09;99201.81;10460182;28;20060;-49
2020/12/27 09:45:40;;;;;;;10.50;5.25;;;;;;;4.63;71.63;99213.53;10458204;28;20052;-49
2020/12/27 09:50:42;;;;;;;11.55;5.47;;;;;;;5.59;71.29;99219.75;10459575;28;20083;-49
2020/12/27 09:55:44;;;;;;;16.13;6.13;;;;;;;5.97;71.10;99227.44;10457419;28;20041;-50
2020/12/27 10:00:46;;;;;;;11.55;6.03;;;;;;;5.29;68.10;99235.81;10457655;28;20493;-50
2020/12/27 10:05:48;;;;;;;10.98;5.88;;;;;;;3.88;63.87;99245.41;10457288;28;20048;-50
2020/12/27 10:10:50;;;;;;;11.73;5.20;;;;;;;2.95;63.83;99254.69;10457417;28;20068;-49
2020/12/27 10:15:52;;;;;;;12.30;5.65;;;;;;;2.41;64.11;99255.31;10459531;28;20183;-55
2020/12/27 10:20:53;;;;;;;11.18;5.65;;;;;;;1.88;64.78;99267.03;10466985;28;20049;-49
2020/12/27 10:25:56;;;;;;;12.00;5.75;;;;;;;1.60;64.89;99278.94;10465219;28;20052;-51
2020/12/27 10:30:58;;;;;;;11.05;5.07;;;;;;;1.26;64.02;99279.94;10465065;28;20485;-49
2020/12/27 10:35:59;;;;;;;12.20;5.03;;;;;;;0.99;64.36;99291.75;10464937;28;20489;-51
2020/12/27 10:41:03;;;;;;;15.43;4.80;;;;;;;0.75;65.06;99302.47;10465570;28;20195;-53
2020/12/27 10:46:05;;;;;;;15.45;6.25;;;;;;;0.54;64.98;99311.31;10464474;28;20041;-51
2020/12/27 10:51:06;;;;;;;11.80;4.88;;;;;;;0.48;65.69;99321.97;10466040;28;20056;-51
2020/12/27 10:56:09;;;;;;;11.02;5.05;;;;;;;0.29;65.44;99346.13;10464610;28;20442;-51
2020/12/27 11:01:11;;;;;;;10.65;4.80;;;;;;;0.10;66.24;99347.94;10464126;28;20394;-49
2020/12/27 11:06:12;;;;;;;11.30;6.05;;;;;;;-0.09;66.33;99358.31;10463672;28;20045;-49
2020/12/27 11:11:19;;;;;;;12.05;6.60;;;;;;;-0.30;65.78;99367.91;10464239;28;20144;-51
2020/12/27 11:16:21;;;;;;;14.38;6.32;;;;;;;-0.42;66.68;99387.38;10463615;28;20198;-51
2020/12/27 11:21:23;;;;;;;11.35;4.90;;;;;;;-0.50;66.58;99392.03;10465117;28;20048;-49
2020/12/27 11:26:25;;;;;;;11.80;4.63;;;;;;;-0.53;67.31;99405.91;10465255;28;20045;-51
2020/12/27 11:31:27;;;;;;;14.43;6.68;;;;;;;-0.38;67.14;99413.91;10465528;28;20049;-51
2020/12/27 11:36:28;;;;;;;12.50;6.28;;;;;;;-0.39;66.66;99407.06;10462319;28;20045;-49
2020/12/27 11:41:31;;;;;;;9.52;5.15;;;;;;;-0.52;66.41;99417.94;10462270;28;20506;-49
2020/12/27 11:46:33;;;;;;;10.95;5.28;;;;;;;-0.67;66.84;99434.09;10462015;28;20484;-48
2020/12/27 11:51:35;;;;;;;12.48;5.38;;;;;;;-0.68;67.57;99447.91;10462323;28;20125;-49
2020/12/27 11:56:37;;;;;;;12.43;4.75;;;;;;;-0.73;67.33;99450.69;10462052;28;20366;-52
2020/12/27 12:01:39;;;;;;;11.30;5.00;;;;;;;-0.67;67.48;99454.75;10461478;28;20075;-52
2020/12/27 12:06:59;;;;;;;14.07;6.35;;;;;;;-0.65;66.96;99463.25;10461331;28;20049;-51
2020/12/27 12:12:20;;;;;;;14.25;6.80;;;;;;;-0.55;66.88;99464.56;10461110;28;20048;-49
2020/12/27 12:17:40;;;;;;;14.90;5.90;;;;;;;-0.41;66.89;99471.69;10460617;28;20052;-51
2020/12/27 12:23:00;;;;;;;14.52;6.22;;;;;;;-0.44;66.28;99487.31;10461726;28;20048;-49
2020/12/27 12:28:21;;;;;;;14.45;5.97;;;;;;;-0.73;66.83;99496.31;10461261;28;20049;-52
2020/12/27 12:33:41;;;;;;;13.00;5.47;;;;;;;-0.90;67.14;99516.81;10463186;28;20056;-51
2020/12/27 12:39:02;;;;;;;10.50;5.45;;;;;;;-0.83;67.32;99523.38;10459522;28;20057;-49
2020/12/27 12:44:23;;;;;;;14.35;5.35;;;;;;;-0.73;66.82;99527.28;10461337;28;20053;-48
2020/12/27 12:49:43;;;;;;;12.35;5.97;;;;;;;-0.71;66.38;99528.03;10459949;28;20049;-52
2020/12/27 12:55:05;;;;;;;13.05;4.90;;;;;;;-0.78;66.70;99539.53;10460598;28;20057;-49
2020/12/27 13:00:26;;;;;;;11.23;5.25;;;;;;;-0.77;66.68;99546.38;10458799;28;20053;-52
2020/12/27 13:05:47;;;;;;;12.88;5.35;;;;;;;-0.70;66.72;99542.66;10460623;28;20135;-49
2020/12/27 13:11:07;;;;;;;11.25;5.60;;;;;;;-0.76;66.48;99553.22;10459758;28;20135;-49
2020/12/27 13:16:28;;;;;;;15.75;5.45;;;;;;;-0.78;66.63;99570.50;10460590;28;20049;-48
2020/12/27 13:21:48;;;;;;;11.95;5.13;;;;;;;-0.78;66.50;99575.66;10462873;28;20088;-51
2020/12/27 13:27:08;;;;;;;10.50;4.65;;;;;;;-0.85;66.56;99574.25;10460560;28;20049;-51
2020/12/27 13:32:29;;;;;;;10.82;5.10;;;;;;;-0.94;66.56;99572.88;10458459;28;20049;-49
2020/12/27 13:37:49;;;;;;;10.60;5.18;;;;;;;-1.05;66.69;99591.34;10458401;28;20044;-49
2020/12/27 13:43:09;;;;;;;9.32;4.93;;;;;;;-1.13;67.05;99608.06;10458403;28;20049;-48
2020/12/27 13:48:30;;;;;;;12.90;6.55;;;;;;;-1.16;67.19;99624.47;10459438;28;20072;-49
2020/12/27 13:53:50;;;;;;;12.60;5.75;;;;;;;-1.17;67.19;99640.84;10457815;28;20452;-49
2020/12/27 13:59:10;;;;;;;13.73;6.15;;;;;;;-1.12;67.29;99646.66;10460298;28;20474;-49
2020/12/27 14:04:31;;;;;;;15.25;6.25;;;;;;;-1.09;66.64;99653.47;10459102;28;20057;-50
2020/12/27 14:09:51;;;;;;;12.43;4.60;;;;;;;-1.08;67.15;99662.88;10460660;28;20084;-51
2020/12/27 14:15:11;;;;;;;13.38;6.10;;;;;;;-1.09;67.25;99669.78;10458653;28;20053;-48
2020/12/27 14:20:32;;;;;;;11.15;5.15;;;;;;;-0.97;66.85;99673.63;10458322;28;20053;-49
2020/12/27 14:25:52;;;;;;;16.05;7.45;;;;;;;-1.02;66.82;99691.03;10459521;28;20052;-53
2020/12/27 14:31:13;;;;;;;15.18;5.82;;;;;;;-1.02;67.39;99704.75;10458399;28;20057;-51
2020/12/27 14:36:34;;;;;;;13.45;5.70;;;;;;;-0.90;67.15;99695.72;10480583;28;20044;-48
2020/12/27 14:41:55;;;;;;;11.85;4.70;;;;;;;-0.91;66.63;99703.53;10498290;28;20424;-53
2020/12/27 14:47:15;;;;;;;13.82;6.40;;;;;;;-0.97;66.47;99715.75;10462173;28;20041;-48
2020/12/27 14:52:37;;;;;;;16.90;6.25;;;;;;;-1.03;66.65;99718.56;10490027;28;20052;-51
2020/12/27 14:57:57;;;;;;;11.80;5.80;;;;;;;-1.02;67.04;99722.81;10483115;28;20064;-48
2020/12/27 15:03:19;;;;;;;14.52;6.32;;;;;;;-0.91;66.59;99735.34;10496558;28;20045;-51
2020/12/27 15:08:40;;;;;;;13.35;5.45;;;;;;;-0.82;66.72;99739.31;10503191;28;20056;-48
2020/12/27 15:14:00;;;;;;;12.38;4.53;;;;;;;-0.66;66.45;99750.72;10503023;28;20052;-47
2020/12/27 15:19:20;;;;;;;13.60;5.53;;;;;;;-0.60;66.28;99758.22;10503533;28;20131;-50
2020/12/27 15:24:41;;;;;;;14.48;6.10;;;;;;;-0.63;66.11;99760.94;10483868;28;20061;-49
2020/12/27 15:30:01;;;;;;;12.95;5.80;;;;;;;-0.70;65.61;99759.50;10461654;28;20083;-51
2020/12/27 15:35:21;;;;;;;15.05;6.43;;;;;;;-0.84;65.94;99751.41;10461855;28;20124;-51
2020/12/27 15:40:42;;;;;;;9.90;4.82;;;;;;;-0.70;66.03;99756.91;10461126;28;20052;-48
2020/12/27 15:46:02;;;;;;;18.10;5.93;;;;;;;-0.76;66.15;99762.31;10482116;28;20423;-48
2020/12/27 15:51:22;;;;;;;17.58;6.80;;;;;;;-0.77;66.34;99773.50;10496264;28;20052;-50
2020/12/27 15:56:44;;;;;;;13.27;5.90;;;;;;;-0.75;66.49;99782.06;10501400;28;20056;-50
2020/12/27 16:02:04;;;;;;;12.70;6.35;;;;;;;-0.72;66.59;99800.84;10501878;28;20094;-49
2020/12/27 16:07:24;;;;;;;11.40;5.10;;;;;;;-0.67;66.38;99805.84;10502095;28;20048;-50
2020/12/27 16:12:45;;;;;;;11.23;5.63;;;;;;;-0.68;65.42;99822.22;10499873;28;20102;-48
2020/12/27 16:18:05;;;;;;;13.90;5.78;;;;;;;-0.73;66.28;99826.72;10499770;28;20044;-48
2020/12/27 16:23:25;;;;;;;11.10;4.93;;;;;;;-0.71;66.31;99842.97;10468995;28;20413;-49
2020/12/27 16:28:46;;;;;;;14.55;6.13;;;;;;;-0.76;66.25;99838.00;10458451;28;20061;-49
2020/12/27 16:34:07;;;;;;;15.30;6.00;;;;;;;-0.94;66.18;99839.50;10459703;28;20056;-49
2020/12/27 16:39:27;;;;;;;12.98;6.32;;;;;;;-1.06;66.04;99850.25;10457864;28;20056;-49
2020/12/27 16:44:48;;;;;;;11.52;5.13;;;;;;;-1.18;66.19;99861.00;10469273;28;20496;-48
2020/12/27 16:50:08;;;;;;;13.98;6.18;;;;;;;-1.30;66.47;99851.94;10497543;28;20049;-49
2020/12/27 16:55:28;;;;;;;12.18;5.35;;;;;;;-1.36;66.89;99851.31;10500045;28;20048;-48
2020/12/27 17:00:49;;;;;;;12.80;6.25;;;;;;;-1.51;66.87;99871.59;10498050;28;20056;-50
2020/12/27 17:06:11;;;;;;;14.20;5.93;;;;;;;-1.44;67.01;99864.50;10497230;28;20078;-50
2020/12/27 17:11:31;;;;;;;11.00;5.47;;;;;;;-1.44;66.50;99856.75;10497977;28;20075;-55
2020/12/27 17:16:35;;;;;;;14.25;5.60;;;;;;;-1.34;67.09;99867.59;10494873;28;20044;-50
2020/12/27 17:21:37;;;;;;;14.15;6.30;;;;;;;-1.26;66.75;99860.41;10491313;28;20059;-49
2020/12/27 17:26:40;;;;;;;16.10;6.65;;;;;;;-1.12;66.49;99865.13;10496388;28;20051;-51
2020/12/27 17:31:44;;;;;;;12.27;5.43;;;;;;;-0.97;66.23;99870.59;10496119;28;20068;-51
2020/12/27 17:36:46;;;;;;;15.68;7.13;;;;;;;-0.83;66.01;99882.16;10497371;28;20055;-48
2020/12/27 17:41:47;;;;;;;12.48;5.85;;;;;;;-0.77;66.12;99890.53;10496698;28;20481;-50
2020/12/27 17:46:50;;;;;;;15.73;7.85;;;;;;;-0.82;65.47;99889.00;10495837;28;20048;-49
2020/12/27 17:51:52;;;;;;;14.25;7.00;;;;;;;-0.82;65.70;99897.59;10496279;28;20550;-51
2020/12/27 17:56:53;;;;;;;15.38;6.32;;;;;;;-0.69;65.92;99903.16;10494728;28;20098;-51
2020/12/27 18:01:57;;;;;;;13.07;6.68;;;;;;;-0.82;66.01;99912.25;10492694;28;20060;-48
2020/12/27 18:06:58;;;;;;;13.13;5.97;;;;;;;-0.69;65.84;99939.31;10492591;28;20496;-48
2020/12/27 18:12:01;;;;;;;17.48;6.60;;;;;;;-0.51;65.44;99941.22;10492645;28;20139;-50
2020/12/27 18:17:04;;;;;;;13.37;6.73;;;;;;;-0.48;65.33;99951.44;10492639;28;20151;-47
2020/12/27 18:22:06;;;;;;;14.93;6.30;;;;;;;-0.51;65.34;99966.22;10493310;28;20056;-50
2020/12/27 18:27:07;;;;;;;14.95;7.47;;;;;;;-0.42;65.11;99970.22;10493877;28;20534;-48
2020/12/27 18:32:10;;;;;;;15.68;7.00;;;;;;;-0.48;65.01;99974.69;10496402;28;20052;-50
2020/12/27 18:37:12;;;;;;;20.77;9.37;;;;;;;-0.61;64.75;99976.03;10494708;28;20056;-49
2020/12/27 18:42:13;;;;;;;16.00;6.78;;;;;;;-0.56;64.82;99976.69;10501131;28;20149;-50
2020/12/27 18:47:16;;;;;;;14.90;6.47;;;;;;;-0.50;65.05;99979.06;10499396;28;20122;-48
2020/12/27 18:52:18;;;;;;;14.40;6.83;;;;;;;-0.83;64.80;99998.28;10497122;28;20182;-48
2020/12/27 18:57:20;;;;;;;16.13;8.18;;;;;;;-1.06;65.50;99992.16;10499979;28;20123;-51
2020/12/27 19:02:22;;;;;;;11.82;6.25;;;;;;;-1.08;65.68;100000.84;10498853;28;20063;-51
2020/12/27 19:07:24;;;;;;;11.65;5.60;;;;;;;-0.90;65.66;100017.47;10499481;28;20436;-49
2020/12/27 19:12:25;;;;;;;17.10;7.07;;;;;;;-0.85;65.38;100013.00;10498677;28;20064;-51
2020/12/27 19:17:29;;;;;;;13.15;7.00;;;;;;;-0.85;65.32;100013.00;10499273;28;20500;-48
2020/12/27 19:22:31;;;;;;;15.73;6.70;;;;;;;-0.78;64.73;100025.66;10501197;28;20518;-50
2020/12/27 19:27:33;;;;;;;14.07;6.28;;;;;;;-0.82;65.29;100034.41;10499524;28;20048;-51
2020/12/27 19:32:35;;;;;;;13.68;6.72;;;;;;;-0.83;65.22;100037.00;10498977;28;20045;-51
2020/12/27 19:37:37;;;;;;;15.18;6.55;;;;;;;-0.80;64.60;100035.19;10499537;28;20222;-49
2020/12/27 19:42:38;;;;;;;13.77;6.35;;;;;;;-0.91;64.48;100036.44;10497499;28;20117;-50
2020/12/27 19:47:41;;;;;;;11.98;5.85;;;;;;;-0.88;64.70;100052.66;10497033;28;20055;-49
2020/12/27 19:52:42;;;;;;;11.02;5.18;;;;;;;-0.91;64.85;100057.09;10503589;28;20447;-51
2020/12/27 19:57:44;;;;;;;12.60;6.22;;;;;;;-0.88;64.79;100063.00;10501633;28;20060;-49
2020/12/27 20:02:47;;;;;;;13.38;5.75;;;;;;;-0.99;65.12;100068.47;10500028;28;20044;-49
2020/12/27 20:07:49;;;;;;;14.68;5.97;;;;;;;-0.97;65.40;100064.13;10498693;28;20063;-52
2020/12/27 20:12:51;;;;;;;13.50;5.60;;;;;;;-0.99;65.03;100083.97;10496153;28;20532;-51
2020/12/27 20:17:53;;;;;;;12.30;5.53;;;;;;;-0.88;64.95;100093.13;10496284;28;20064;-50
2020/12/27 20:22:55;;;;;;;11.57;5.60;;;;;;;-1.01;64.84;100100.41;10499065;28;20123;-50
2020/12/27 20:27:56;;;;;;;13.18;6.43;;;;;;;-1.14;64.79;100110.25;10494324;28;20485;-49
2020/12/27 20:32:59;;;;;;;13.73;5.45;;;;;;;-1.17;65.02;100106.03;10499745;28;20044;-50
2020/12/27 20:38:01;;;;;;;10.40;5.63;;;;;;;-1.09;64.60;100107.53;10497546;28;20049;-53
2020/12/27 20:43:04;;;;;;;11.57;5.15;;;;;;;-1.09;64.57;100116.13;10498783;28;20106;-48
2020/12/27 20:48:06;;;;;;;9.77;5.40;;;;;;;-1.06;64.52;100126.34;10498023;28;20098;-54
2020/12/27 20:53:08;;;;;;;13.73;5.40;;;;;;;-0.89;64.46;100132.72;10498145;28;20463;-48
2020/12/27 20:58:10;;;;;;;12.05;5.53;;;;;;;-0.79;64.20;100149.63;10497519;28;20052;-51
2020/12/27 21:03:12;;;;;;;10.80;5.60;;;;;;;-0.73;63.68;100146.84;10496998;28;20477;-51
2020/12/27 21:08:14;;;;;;;11.40;6.05;;;;;;;-0.65;63.88;100144.84;10496856;28;20048;-48
2020/12/27 21:13:16;;;;;;;11.25;5.47;;;;;;;-0.59;63.65;100143.81;10498729;28;20393;-51
2020/12/27 21:18:18;;;;;;;14.60;6.53;;;;;;;-0.61;63.84;100151.63;10497322;28;20499;-50
2020/12/27 21:23:20;;;;;;;12.13;6.05;;;;;;;-0.75;63.63;100148.63;10496867;28;20492;-48
2020/12/27 21:28:22;;;;;;;13.43;5.95;;;;;;;-1.00;63.47;100161.44;10496637;28;20044;-50
2020/12/27 21:33:25;;;;;;;12.40;5.80;;;;;;;-1.11;63.99;100166.06;10497164;28;20139;-49
2020/12/27 21:38:26;;;;;;;11.40;5.32;;;;;;;-1.07;63.92;100160.78;10496161;28;20102;-48
2020/12/27 21:43:28;;;;;;;12.40;5.60;;;;;;;-1.00;63.69;100170.03;10496709;28;20079;-49
2020/12/27 21:48:30;;;;;;;10.75;5.22;;;;;;;-1.01;63.55;100170.94;10498386;28;20049;-50
2020/12/27 21:53:32;;;;;;;12.18;5.93;;;;;;;-1.12;63.32;100165.22;10497886;28;20056;-50
2020/12/27 21:58:34;;;;;;;12.10;5.38;;;;;;;-1.08;63.24;100177.13;10497944;28;20469;-51
2020/12/27 22:03:36;;;;;;;14.65;5.65;;;;;;;-1.04;62.68;100199.41;10496335;28;20366;-49
2020/12/27 22:08:38;;;;;;;9.68;5.05;;;;;;;-1.22;62.76;100182.72;10495579;28;20065;-49
2020/12/27 22:13:39;;;;;;;14.88;6.30;;;;;;;-1.15;62.60;100193.69;10501054;28;20477;-47
2020/12/27 22:18:42;;;;;;;11.77;6.03;;;;;;;-1.06;62.38;100196.00;10504065;28;20389;-51
2020/12/27 22:23:44;;;;;;;18.38;7.00;;;;;;;-0.99;62.40;100200.09;10502857;28;20404;-48
2020/12/27 22:28:47;;;;;;;12.32;5.75;;;;;;;-0.91;62.38;100209.34;10500474;28;20052;-51
2020/12/27 22:33:49;;;;;;;12.45;5.57;;;;;;;-0.96;62.26;100206.91;10499950;28;20477;-48
2020/12/27 22:38:51;;;;;;;13.73;6.07;;;;;;;-1.01;62.61;100198.47;10499165;28;20496;-51
2020/12/27 22:43:53;;;;;;;11.00;5.68;;;;;;;-1.01;62.21;100213.94;10502151;28;20052;-53
2020/12/27 22:48:56;;;;;;;13.45;6.40;;;;;;;-1.25;61.85;100225.81;10500772;28;20140;-51
2020/12/27 22:53:57;;;;;;;13.43;5.97;;;;;;;-1.32;62.57;100229.47;10500874;28;20053;-51
2020/12/27 22:58:59;;;;;;;11.80;5.93;;;;;;;-1.36;62.53;100222.69;10501867;28;20512;-58
2020/12/27 23:04:02;;;;;;;13.07;5.82;;;;;;;-1.44;62.62;100223.75;10505690;28;20052;-51
2020/12/27 23:09:07;;;;;;;9.63;4.65;;;;;;;-1.54;62.38;100216.31;10497976;28;20059;-50
2020/12/27 23:14:09;;;;;;;11.25;5.32;;;;;;;-1.77;62.39;100222.09;10497852;28;20083;-55
2020/12/27 23:19:12;;;;;;;8.57;3.47;;;;;;;-1.80;63.02;100210.13;10499283;28;20041;-49
2020/12/27 23:24:14;;;;;;;11.20;5.10;;;;;;;-1.61;62.31;100218.19;10500269;28;20048;-51
2020/12/27 23:29:15;;;;;;;12.57;5.72;;;;;;;-1.55;61.94;100228.34;10502221;28;20055;-49
2020/12/27 23:34:18;;;;;;;11.75;4.93;;;;;;;-1.64;61.65;100228.59;10501192;28;20063;-52
2020/12/27 23:39:19;;;;;;;12.57;5.70;;;;;;;-1.81;61.87;100229.06;10501207;28;20503;-48